sensor_id;sensor_type;location;lat;lon;timestamp;P1;durP1;ratioP1;P2;durP2;ratioP2
10452;SDS011;5274;51.992;8.518;2022-11-14T00:02:13;44.27;;;21.77;;
10452;SDS011;5274;51.992;8.518;2022-11-14T00:04:41;41.93;;;21.13;;
10452;SDS011;5274;51.992;8.518;2022-11-14T00:07:09;45.73;;;22.53;;
10452;SDS011;5274;51.992;8.518;2022-11-14T00:09:35;50.87;;;22.33;;
10452;SDS011;5274;51.992;8.518;2022-11-14T00:12:02;43.87;;;20.50;;
10452;SDS011;5274;51.992;8.518;2022-11-14T00:14:28;47.57;;;21.77;;
10452;SDS011;5274;51.992;8.518;2022-11-14T00:16:54;46.23;;;21.27;;
10452;SDS011;5274;51.992;8.518;2022-11-14T00:19:20;46.93;;;21.67;;
10452;SDS011;5274;51.992;8.518;2022-11-14T00:21:45;41.97;;;20.43;;
10452;SDS011;5274;51.992;8.518;2022-11-14T00:24:11;43.37;;;20.83;;
10452;SDS011;5274;51.992;8.518;2022-11-14T00:26:36;44.63;;;21.23;;
10452;SDS011;5274;51.992;8.518;2022-11-14T00:29:02;41.47;;;20.73;;
10452;SDS011;5274;51.992;8.518;2022-11-14T00:31:27;44.20;;;20.47;;
10452;SDS011;5274;51.992;8.518;2022-11-14T00:33:53;43.63;;;21.37;;
10452;SDS011;5274;51.992;8.518;2022-11-14T00:36:18;43.93;;;21.37;;
10452;SDS011;5274;51.992;8.518;2022-11-14T00:38:44;45.87;;;21.50;;
10452;SDS011;5274;51.992;8.518;2022-11-14T00:41:09;46.23;;;21.27;;
10452;SDS011;5274;51.992;8.518;2022-11-14T00:43:35;43.57;;;21.33;;
10452;SDS011;5274;51.992;8.518;2022-11-14T00:46:00;39.83;;;20.80;;
10452;SDS011;5274;51.992;8.518;2022-11-14T00:48:26;42.73;;;20.77;;
10452;SDS011;5274;51.992;8.518;2022-11-14T00:50:51;44.57;;;21.67;;
10452;SDS011;5274;51.992;8.518;2022-11-14T00:53:17;42.80;;;20.97;;
10452;SDS011;5274;51.992;8.518;2022-11-14T00:55:43;42.87;;;20.30;;
10452;SDS011;5274;51.992;8.518;2022-11-14T00:58:08;46.53;;;21.33;;
10452;SDS011;5274;51.992;8.518;2022-11-14T01:00:34;36.33;;;19.37;;
10452;SDS011;5274;51.992;8.518;2022-11-14T01:03:00;43.17;;;21.13;;
10452;SDS011;5274;51.992;8.518;2022-11-14T01:05:25;40.83;;;21.07;;
10452;SDS011;5274;51.992;8.518;2022-11-14T01:07:51;42.00;;;20.07;;
10452;SDS011;5274;51.992;8.518;2022-11-14T01:10:18;38.40;;;20.03;;
10452;SDS011;5274;51.992;8.518;2022-11-14T01:12:43;36.60;;;18.43;;
10452;SDS011;5274;51.992;8.518;2022-11-14T01:15:09;46.17;;;20.80;;
10452;SDS011;5274;51.992;8.518;2022-11-14T01:17:35;39.07;;;20.70;;
10452;SDS011;5274;51.992;8.518;2022-11-14T01:20:00;40.23;;;20.20;;
10452;SDS011;5274;51.992;8.518;2022-11-14T01:22:26;37.73;;;19.50;;
10452;SDS011;5274;51.992;8.518;2022-11-14T01:24:53;43.77;;;20.97;;
10452;SDS011;5274;51.992;8.518;2022-11-14T01:27:19;38.17;;;21.53;;
10452;SDS011;5274;51.992;8.518;2022-11-14T01:29:44;41.47;;;21.10;;
10452;SDS011;5274;51.992;8.518;2022-11-14T01:32:10;45.70;;;21.07;;
10452;SDS011;5274;51.992;8.518;2022-11-14T01:34:36;42.67;;;21.30;;
10452;SDS011;5274;51.992;8.518;2022-11-14T01:37:01;39.57;;;21.27;;
10452;SDS011;5274;51.992;8.518;2022-11-14T01:39:27;45.27;;;21.50;;
10452;SDS011;5274;51.992;8.518;2022-11-14T01:41:52;40.70;;;21.40;;
10452;SDS011;5274;51.992;8.518;2022-11-14T01:44:37;36.27;;;19.77;;
10452;SDS011;5274;51.992;8.518;2022-11-14T01:47:09;37.43;;;19.57;;
10452;SDS011;5274;51.992;8.518;2022-11-14T01:49:37;44.67;;;21.13;;
10452;SDS011;5274;51.992;8.518;2022-11-14T01:52:06;35.93;;;20.33;;
10452;SDS011;5274;51.992;8.518;2022-11-14T01:54:40;44.27;;;21.17;;
10452;SDS011;5274;51.992;8.518;2022-11-14T01:57:08;44.43;;;19.63;;
10452;SDS011;5274;51.992;8.518;2022-11-14T01:59:38;38.03;;;19.47;;
10452;SDS011;5274;51.992;8.518;2022-11-14T02:02:15;38.60;;;19.50;;
10452;SDS011;5274;51.992;8.518;2022-11-14T02:04:44;41.80;;;20.57;;
10452;SDS011;5274;51.992;8.518;2022-11-14T02:07:16;38.00;;;19.43;;
10452;SDS011;5274;51.992;8.518;2022-11-14T02:09:43;43.77;;;19.90;;
10452;SDS011;5274;51.992;8.518;2022-11-14T02:12:11;33.50;;;17.37;;
10452;SDS011;5274;51.992;8.518;2022-11-14T02:14:39;36.53;;;19.23;;
10452;SDS011;5274;51.992;8.518;2022-11-14T02:17:09;39.90;;;20.23;;
10452;SDS011;5274;51.992;8.518;2022-11-14T02:19:42;45.27;;;19.23;;
10452;SDS011;5274;51.992;8.518;2022-11-14T02:22:16;39.93;;;20.90;;
10452;SDS011;5274;51.992;8.518;2022-11-14T02:24:42;35.33;;;19.73;;
10452;SDS011;5274;51.992;8.518;2022-11-14T02:27:08;41.67;;;19.50;;
10452;SDS011;5274;51.992;8.518;2022-11-14T02:29:34;43.50;;;20.23;;
10452;SDS011;5274;51.992;8.518;2022-11-14T02:32:00;42.17;;;21.07;;
10452;SDS011;5274;51.992;8.518;2022-11-14T02:34:26;45.77;;;20.63;;
10452;SDS011;5274;51.992;8.518;2022-11-14T02:36:52;45.17;;;21.77;;
10452;SDS011;5274;51.992;8.518;2022-11-14T02:39:17;43.50;;;19.90;;
10452;SDS011;5274;51.992;8.518;2022-11-14T02:41:43;41.97;;;20.70;;
10452;SDS011;5274;51.992;8.518;2022-11-14T02:44:08;40.77;;;20.03;;
10452;SDS011;5274;51.992;8.518;2022-11-14T02:46:34;44.77;;;21.17;;
10452;SDS011;5274;51.992;8.518;2022-11-14T02:48:59;40.47;;;20.17;;
10452;SDS011;5274;51.992;8.518;2022-11-14T02:51:25;37.80;;;19.97;;
10452;SDS011;5274;51.992;8.518;2022-11-14T02:53:50;46.20;;;22.13;;
10452;SDS011;5274;51.992;8.518;2022-11-14T02:56:16;41.97;;;20.80;;
10452;SDS011;5274;51.992;8.518;2022-11-14T02:58:42;44.23;;;20.23;;
10452;SDS011;5274;51.992;8.518;2022-11-14T03:01:07;41.47;;;21.07;;
10452;SDS011;5274;51.992;8.518;2022-11-14T03:03:33;47.90;;;21.27;;
10452;SDS011;5274;51.992;8.518;2022-11-14T03:05:59;41.13;;;21.07;;
10452;SDS011;5274;51.992;8.518;2022-11-14T03:08:25;45.57;;;20.93;;
10452;SDS011;5274;51.992;8.518;2022-11-14T03:10:51;50.80;;;23.00;;
10452;SDS011;5274;51.992;8.518;2022-11-14T03:13:17;51.73;;;23.00;;
10452;SDS011;5274;51.992;8.518;2022-11-14T03:15:43;53.53;;;23.70;;
10452;SDS011;5274;51.992;8.518;2022-11-14T03:18:08;44.33;;;22.77;;
10452;SDS011;5274;51.992;8.518;2022-11-14T03:20:34;54.33;;;23.57;;
10452;SDS011;5274;51.992;8.518;2022-11-14T03:23:00;50.23;;;22.63;;
10452;SDS011;5274;51.992;8.518;2022-11-14T03:25:25;49.80;;;22.17;;
10452;SDS011;5274;51.992;8.518;2022-11-14T03:27:51;48.27;;;21.80;;
10452;SDS011;5274;51.992;8.518;2022-11-14T03:30:16;48.13;;;22.23;;
10452;SDS011;5274;51.992;8.518;2022-11-14T03:32:42;55.87;;;24.93;;
10452;SDS011;5274;51.992;8.518;2022-11-14T03:35:08;50.10;;;23.27;;
10452;SDS011;5274;51.992;8.518;2022-11-14T03:37:34;61.17;;;25.03;;
10452;SDS011;5274;51.992;8.518;2022-11-14T03:39:59;54.20;;;24.33;;
10452;SDS011;5274;51.992;8.518;2022-11-14T03:42:25;53.37;;;24.33;;
10452;SDS011;5274;51.992;8.518;2022-11-14T03:44:50;45.23;;;22.40;;
10452;SDS011;5274;51.992;8.518;2022-11-14T03:47:16;53.77;;;24.77;;
10452;SDS011;5274;51.992;8.518;2022-11-14T03:49:42;51.37;;;22.77;;
10452;SDS011;5274;51.992;8.518;2022-11-14T03:52:09;50.77;;;23.33;;
10452;SDS011;5274;51.992;8.518;2022-11-14T03:54:35;53.37;;;24.27;;
10452;SDS011;5274;51.992;8.518;2022-11-14T03:57:01;49.33;;;23.37;;
10452;SDS011;5274;51.992;8.518;2022-11-14T03:59:27;48.07;;;23.10;;
10452;SDS011;5274;51.992;8.518;2022-11-14T04:01:53;55.27;;;24.17;;
10452;SDS011;5274;51.992;8.518;2022-11-14T04:04:18;51.07;;;24.07;;
10452;SDS011;5274;51.992;8.518;2022-11-14T04:06:44;56.90;;;23.40;;
10452;SDS011;5274;51.992;8.518;2022-11-14T04:09:10;58.73;;;24.43;;
10452;SDS011;5274;51.992;8.518;2022-11-14T04:11:36;58.27;;;25.63;;
10452;SDS011;5274;51.992;8.518;2022-11-14T04:14:01;61.33;;;24.57;;
10452;SDS011;5274;51.992;8.518;2022-11-14T04:16:27;61.27;;;24.90;;
10452;SDS011;5274;51.992;8.518;2022-11-14T04:18:52;55.13;;;24.67;;
10452;SDS011;5274;51.992;8.518;2022-11-14T04:21:18;59.53;;;25.03;;
10452;SDS011;5274;51.992;8.518;2022-11-14T04:23:43;57.03;;;24.83;;
10452;SDS011;5274;51.992;8.518;2022-11-14T04:26:09;54.30;;;24.27;;
10452;SDS011;5274;51.992;8.518;2022-11-14T04:28:35;54.70;;;24.03;;
10452;SDS011;5274;51.992;8.518;2022-11-14T04:31:00;51.77;;;24.17;;
10452;SDS011;5274;51.992;8.518;2022-11-14T04:33:26;53.57;;;24.33;;
10452;SDS011;5274;51.992;8.518;2022-11-14T04:35:51;59.07;;;25.57;;
10452;SDS011;5274;51.992;8.518;2022-11-14T04:38:17;55.17;;;25.83;;
10452;SDS011;5274;51.992;8.518;2022-11-14T04:40:49;57.03;;;26.23;;
10452;SDS011;5274;51.992;8.518;2022-11-14T04:43:15;57.57;;;24.80;;
10452;SDS011;5274;51.992;8.518;2022-11-14T04:45:41;56.13;;;25.20;;
10452;SDS011;5274;51.992;8.518;2022-11-14T04:48:06;52.63;;;25.30;;
10452;SDS011;5274;51.992;8.518;2022-11-14T04:50:32;53.10;;;24.60;;
10452;SDS011;5274;51.992;8.518;2022-11-14T04:52:57;61.13;;;25.37;;
10452;SDS011;5274;51.992;8.518;2022-11-14T04:55:23;60.47;;;24.83;;
10452;SDS011;5274;51.992;8.518;2022-11-14T04:57:52;54.60;;;25.70;;
10452;SDS011;5274;51.992;8.518;2022-11-14T05:00:19;59.63;;;25.87;;
10452;SDS011;5274;51.992;8.518;2022-11-14T05:02:46;56.50;;;25.37;;
10452;SDS011;5274;51.992;8.518;2022-11-14T05:05:11;53.73;;;24.33;;
10452;SDS011;5274;51.992;8.518;2022-11-14T05:07:37;54.03;;;25.63;;
10452;SDS011;5274;51.992;8.518;2022-11-14T05:10:03;62.97;;;29.20;;
10452;SDS011;5274;51.992;8.518;2022-11-14T05:12:29;56.63;;;26.43;;
10452;SDS011;5274;51.992;8.518;2022-11-14T05:14:54;56.83;;;25.83;;
10452;SDS011;5274;51.992;8.518;2022-11-14T05:17:20;50.00;;;23.60;;
10452;SDS011;5274;51.992;8.518;2022-11-14T05:19:45;47.83;;;22.93;;
10452;SDS011;5274;51.992;8.518;2022-11-14T05:22:11;57.27;;;24.57;;
10452;SDS011;5274;51.992;8.518;2022-11-14T05:24:36;50.00;;;22.97;;
10452;SDS011;5274;51.992;8.518;2022-11-14T05:27:02;45.57;;;22.37;;
10452;SDS011;5274;51.992;8.518;2022-11-14T05:29:28;47.40;;;25.23;;
10452;SDS011;5274;51.992;8.518;2022-11-14T05:31:53;47.57;;;22.47;;
10452;SDS011;5274;51.992;8.518;2022-11-14T05:34:19;53.67;;;23.83;;
10452;SDS011;5274;51.992;8.518;2022-11-14T05:36:44;51.77;;;23.17;;
10452;SDS011;5274;51.992;8.518;2022-11-14T05:39:10;52.23;;;23.83;;
10452;SDS011;5274;51.992;8.518;2022-11-14T05:41:35;49.57;;;24.00;;
10452;SDS011;5274;51.992;8.518;2022-11-14T05:44:02;53.07;;;24.03;;
10452;SDS011;5274;51.992;8.518;2022-11-14T05:46:28;54.40;;;24.47;;
10452;SDS011;5274;51.992;8.518;2022-11-14T05:48:54;53.60;;;23.20;;
10452;SDS011;5274;51.992;8.518;2022-11-14T05:51:19;46.07;;;22.77;;
10452;SDS011;5274;51.992;8.518;2022-11-14T05:53:45;56.90;;;24.43;;
10452;SDS011;5274;51.992;8.518;2022-11-14T05:56:11;49.97;;;23.60;;
10452;SDS011;5274;51.992;8.518;2022-11-14T05:58:37;49.47;;;23.40;;
10452;SDS011;5274;51.992;8.518;2022-11-14T06:01:06;48.87;;;23.13;;
10452;SDS011;5274;51.992;8.518;2022-11-14T06:03:35;40.97;;;21.90;;
10452;SDS011;5274;51.992;8.518;2022-11-14T06:06:09;45.70;;;22.43;;
10452;SDS011;5274;51.992;8.518;2022-11-14T06:08:36;50.33;;;22.60;;
10452;SDS011;5274;51.992;8.518;2022-11-14T06:11:03;49.47;;;22.70;;
10452;SDS011;5274;51.992;8.518;2022-11-14T06:13:31;51.13;;;23.70;;
10452;SDS011;5274;51.992;8.518;2022-11-14T06:16:00;47.97;;;23.70;;
10452;SDS011;5274;51.992;8.518;2022-11-14T06:18:27;48.23;;;23.87;;
10452;SDS011;5274;51.992;8.518;2022-11-14T06:20:57;53.60;;;24.90;;
10452;SDS011;5274;51.992;8.518;2022-11-14T06:23:23;56.73;;;23.93;;
10452;SDS011;5274;51.992;8.518;2022-11-14T06:25:49;49.53;;;24.83;;
10452;SDS011;5274;51.992;8.518;2022-11-14T06:28:14;54.70;;;24.83;;
10452;SDS011;5274;51.992;8.518;2022-11-14T06:30:40;56.57;;;24.53;;
10452;SDS011;5274;51.992;8.518;2022-11-14T06:33:05;51.70;;;24.67;;
10452;SDS011;5274;51.992;8.518;2022-11-14T06:35:31;51.07;;;24.60;;
10452;SDS011;5274;51.992;8.518;2022-11-14T06:37:58;48.50;;;22.03;;
10452;SDS011;5274;51.992;8.518;2022-11-14T06:40:24;51.23;;;24.43;;
10452;SDS011;5274;51.992;8.518;2022-11-14T06:42:49;52.37;;;23.97;;
10452;SDS011;5274;51.992;8.518;2022-11-14T06:45:15;56.37;;;24.60;;
10452;SDS011;5274;51.992;8.518;2022-11-14T06:47:41;45.67;;;22.30;;
10452;SDS011;5274;51.992;8.518;2022-11-14T06:50:06;54.67;;;23.23;;
10452;SDS011;5274;51.992;8.518;2022-11-14T06:52:32;55.37;;;22.30;;
10452;SDS011;5274;51.992;8.518;2022-11-14T06:54:58;45.47;;;22.77;;
10452;SDS011;5274;51.992;8.518;2022-11-14T06:57:23;56.53;;;23.10;;
10452;SDS011;5274;51.992;8.518;2022-11-14T06:59:49;64.70;;;24.87;;
10452;SDS011;5274;51.992;8.518;2022-11-14T07:02:14;64.80;;;22.33;;
10452;SDS011;5274;51.992;8.518;2022-11-14T07:04:40;46.67;;;23.23;;
10452;SDS011;5274;51.992;8.518;2022-11-14T07:07:05;46.53;;;21.97;;
10452;SDS011;5274;51.992;8.518;2022-11-14T07:09:31;43.70;;;21.03;;
10452;SDS011;5274;51.992;8.518;2022-11-14T07:11:56;48.47;;;22.07;;
10452;SDS011;5274;51.992;8.518;2022-11-14T07:14:22;39.93;;;18.77;;
10452;SDS011;5274;51.992;8.518;2022-11-14T07:16:47;42.97;;;19.30;;
10452;SDS011;5274;51.992;8.518;2022-11-14T07:19:13;34.90;;;17.47;;
10452;SDS011;5274;51.992;8.518;2022-11-14T07:21:39;30.30;;;17.67;;
10452;SDS011;5274;51.992;8.518;2022-11-14T07:24:04;36.97;;;18.77;;
10452;SDS011;5274;51.992;8.518;2022-11-14T07:26:30;31.70;;;16.93;;
10452;SDS011;5274;51.992;8.518;2022-11-14T07:28:56;34.13;;;16.00;;
10452;SDS011;5274;51.992;8.518;2022-11-14T07:31:21;26.10;;;14.93;;
10452;SDS011;5274;51.992;8.518;2022-11-14T07:33:47;26.63;;;15.10;;
10452;SDS011;5274;51.992;8.518;2022-11-14T07:36:13;25.50;;;15.13;;
10452;SDS011;5274;51.992;8.518;2022-11-14T07:38:40;33.33;;;15.97;;
10452;SDS011;5274;51.992;8.518;2022-11-14T07:41:13;31.47;;;15.90;;
10452;SDS011;5274;51.992;8.518;2022-11-14T07:43:40;27.30;;;14.93;;
10452;SDS011;5274;51.992;8.518;2022-11-14T07:46:16;32.17;;;15.73;;
10452;SDS011;5274;51.992;8.518;2022-11-14T07:48:42;33.40;;;16.10;;
10452;SDS011;5274;51.992;8.518;2022-11-14T07:51:09;27.13;;;15.70;;
10452;SDS011;5274;51.992;8.518;2022-11-14T07:53:41;25.73;;;15.37;;
10452;SDS011;5274;51.992;8.518;2022-11-14T07:56:07;24.70;;;13.70;;
10452;SDS011;5274;51.992;8.518;2022-11-14T07:58:34;26.67;;;14.87;;
10452;SDS011;5274;51.992;8.518;2022-11-14T08:01:01;29.17;;;15.80;;
10452;SDS011;5274;51.992;8.518;2022-11-14T08:03:27;26.07;;;13.90;;
10452;SDS011;5274;51.992;8.518;2022-11-14T08:08:29;25.33;;;14.83;;
10452;SDS011;5274;51.992;8.518;2022-11-14T08:10:55;24.03;;;14.30;;
10452;SDS011;5274;51.992;8.518;2022-11-14T08:13:22;23.80;;;13.47;;
10452;SDS011;5274;51.992;8.518;2022-11-14T08:15:47;22.20;;;14.13;;
10452;SDS011;5274;51.992;8.518;2022-11-14T08:18:13;25.90;;;14.43;;
10452;SDS011;5274;51.992;8.518;2022-11-14T08:20:38;31.70;;;15.30;;
10452;SDS011;5274;51.992;8.518;2022-11-14T08:23:04;22.37;;;13.10;;
10452;SDS011;5274;51.992;8.518;2022-11-14T08:25:31;24.27;;;13.17;;
10452;SDS011;5274;51.992;8.518;2022-11-14T08:27:56;26.67;;;14.33;;
10452;SDS011;5274;51.992;8.518;2022-11-14T08:30:22;23.97;;;14.33;;
10452;SDS011;5274;51.992;8.518;2022-11-14T08:32:48;25.77;;;14.50;;
10452;SDS011;5274;51.992;8.518;2022-11-14T08:35:13;21.77;;;13.97;;
10452;SDS011;5274;51.992;8.518;2022-11-14T08:37:39;24.70;;;14.73;;
10452;SDS011;5274;51.992;8.518;2022-11-14T08:40:04;25.10;;;14.07;;
10452;SDS011;5274;51.992;8.518;2022-11-14T08:42:30;31.73;;;15.17;;
10452;SDS011;5274;51.992;8.518;2022-11-14T08:44:56;28.83;;;15.83;;
10452;SDS011;5274;51.992;8.518;2022-11-14T08:47:22;27.07;;;15.60;;
10452;SDS011;5274;51.992;8.518;2022-11-14T08:49:47;28.97;;;15.60;;
10452;SDS011;5274;51.992;8.518;2022-11-14T08:52:13;26.10;;;15.23;;
10452;SDS011;5274;51.992;8.518;2022-11-14T08:54:38;30.60;;;17.20;;
10452;SDS011;5274;51.992;8.518;2022-11-14T08:57:04;25.87;;;13.87;;
10452;SDS011;5274;51.992;8.518;2022-11-14T08:59:30;22.80;;;13.03;;
10452;SDS011;5274;51.992;8.518;2022-11-14T09:01:56;24.27;;;15.00;;
10452;SDS011;5274;51.992;8.518;2022-11-14T09:04:22;23.80;;;14.40;;
10452;SDS011;5274;51.992;8.518;2022-11-14T09:06:48;23.23;;;13.83;;
10452;SDS011;5274;51.992;8.518;2022-11-14T09:09:13;23.23;;;13.80;;
10452;SDS011;5274;51.992;8.518;2022-11-14T09:11:39;21.57;;;12.67;;
10452;SDS011;5274;51.992;8.518;2022-11-14T09:14:05;22.90;;;13.07;;
10452;SDS011;5274;51.992;8.518;2022-11-14T09:16:30;22.97;;;15.00;;
10452;SDS011;5274;51.992;8.518;2022-11-14T09:18:57;22.83;;;13.57;;
10452;SDS011;5274;51.992;8.518;2022-11-14T09:21:24;21.97;;;13.67;;
10452;SDS011;5274;51.992;8.518;2022-11-14T09:23:50;20.77;;;12.40;;
10452;SDS011;5274;51.992;8.518;2022-11-14T09:26:16;21.47;;;11.90;;
10452;SDS011;5274;51.992;8.518;2022-11-14T09:28:42;18.07;;;11.87;;
10452;SDS011;5274;51.992;8.518;2022-11-14T09:31:09;19.60;;;12.13;;
10452;SDS011;5274;51.992;8.518;2022-11-14T09:33:36;19.27;;;11.10;;
10452;SDS011;5274;51.992;8.518;2022-11-14T09:36:03;27.43;;;12.53;;
10452;SDS011;5274;51.992;8.518;2022-11-14T09:38:30;26.50;;;11.43;;
10452;SDS011;5274;51.992;8.518;2022-11-14T09:41:02;19.57;;;12.27;;
10452;SDS011;5274;51.992;8.518;2022-11-14T09:46:21;20.02;;;11.73;;
10452;SDS011;5274;51.992;8.518;2022-11-14T09:49:10;19.55;;;11.98;;
10452;SDS011;5274;51.992;8.518;2022-11-14T09:51:57;18.35;;;11.85;;
10452;SDS011;5274;51.992;8.518;2022-11-14T09:54:33;15.25;;;10.45;;
10452;SDS011;5274;51.992;8.518;2022-11-14T09:57:12;16.80;;;10.93;;
10452;SDS011;5274;51.992;8.518;2022-11-14T09:59:40;18.23;;;12.18;;
10452;SDS011;5274;51.992;8.518;2022-11-14T10:05:10;22.73;;;13.73;;
10452;SDS011;5274;51.992;8.518;2022-11-14T10:13:24;22.33;;;15.05;;
10452;SDS011;5274;51.992;8.518;2022-11-14T10:24:10;14.30;;;9.98;;
10452;SDS011;5274;51.992;8.518;2022-11-14T10:27:22;17.75;;;10.52;;
10452;SDS011;5274;51.992;8.518;2022-11-14T10:32:25;15.55;;;10.95;;
10452;SDS011;5274;51.992;8.518;2022-11-14T10:35:19;14.98;;;9.38;;
10452;SDS011;5274;51.992;8.518;2022-11-14T10:40:47;13.38;;;8.70;;
10452;SDS011;5274;51.992;8.518;2022-11-14T10:45:51;15.18;;;9.70;;
10452;SDS011;5274;51.992;8.518;2022-11-14T10:48:24;16.58;;;10.27;;
10452;SDS011;5274;51.992;8.518;2022-11-14T10:50:56;13.38;;;9.32;;
10452;SDS011;5274;51.992;8.518;2022-11-14T10:56:07;15.57;;;10.43;;
10452;SDS011;5274;51.992;8.518;2022-11-14T10:58:38;13.82;;;10.10;;
10452;SDS011;5274;51.992;8.518;2022-11-14T11:06:36;13.30;;;10.00;;
10452;SDS011;5274;51.992;8.518;2022-11-14T11:09:11;15.98;;;10.02;;
10452;SDS011;5274;51.992;8.518;2022-11-14T11:11:59;13.75;;;9.70;;
10452;SDS011;5274;51.992;8.518;2022-11-14T11:14:26;13.90;;;9.50;;
10452;SDS011;5274;51.992;8.518;2022-11-14T11:19:37;13.45;;;8.77;;
10452;SDS011;5274;51.992;8.518;2022-11-14T11:22:04;11.93;;;8.68;;
10452;SDS011;5274;51.992;8.518;2022-11-14T11:24:47;11.98;;;7.95;;
10452;SDS011;5274;51.992;8.518;2022-11-14T11:29:44;10.30;;;8.05;;
10452;SDS011;5274;51.992;8.518;2022-11-14T11:32:11;12.80;;;7.65;;
10452;SDS011;5274;51.992;8.518;2022-11-14T11:34:48;10.73;;;8.07;;
10452;SDS011;5274;51.992;8.518;2022-11-14T11:40:21;10.32;;;7.30;;
10452;SDS011;5274;51.992;8.518;2022-11-14T11:45:18;9.65;;;7.70;;
10452;SDS011;5274;51.992;8.518;2022-11-14T11:47:47;11.35;;;8.35;;
10452;SDS011;5274;51.992;8.518;2022-11-14T11:50:22;8.98;;;7.20;;
10452;SDS011;5274;51.992;8.518;2022-11-14T11:55:44;10.95;;;7.05;;
10452;SDS011;5274;51.992;8.518;2022-11-14T11:58:22;8.68;;;7.30;;
10452;SDS011;5274;51.992;8.518;2022-11-14T12:01:02;8.52;;;7.15;;
10452;SDS011;5274;51.992;8.518;2022-11-14T12:03:27;9.27;;;7.53;;
10452;SDS011;5274;51.992;8.518;2022-11-14T12:06:00;11.52;;;8.00;;
10452;SDS011;5274;51.992;8.518;2022-11-14T12:11:04;8.55;;;7.40;;
10452;SDS011;5274;51.992;8.518;2022-11-14T12:22:13;10.07;;;8.13;;
10452;SDS011;5274;51.992;8.518;2022-11-14T12:30:18;10.27;;;8.07;;
10452;SDS011;5274;51.992;8.518;2022-11-14T12:32:49;11.80;;;8.88;;
10452;SDS011;5274;51.992;8.518;2022-11-14T12:37:54;14.93;;;8.35;;
10452;SDS011;5274;51.992;8.518;2022-11-14T12:40:29;11.55;;;8.35;;
10452;SDS011;5274;51.992;8.518;2022-11-14T12:43:03;10.77;;;7.55;;
10452;SDS011;5274;51.992;8.518;2022-11-14T12:45:55;11.18;;;8.15;;
10452;SDS011;5274;51.992;8.518;2022-11-14T12:50:50;10.70;;;8.30;;
10452;SDS011;5274;51.992;8.518;2022-11-14T13:01:30;8.93;;;6.72;;
10452;SDS011;5274;51.992;8.518;2022-11-14T13:06:49;9.43;;;6.35;;
10452;SDS011;5274;51.992;8.518;2022-11-14T13:18:24;8.95;;;6.63;;
10452;SDS011;5274;51.992;8.518;2022-11-14T13:24:15;8.45;;;6.07;;
10452;SDS011;5274;51.992;8.518;2022-11-14T13:26:43;11.10;;;6.45;;
10452;SDS011;5274;51.992;8.518;2022-11-14T13:32:37;8.88;;;6.30;;
10452;SDS011;5274;51.992;8.518;2022-11-14T13:35:10;9.10;;;6.50;;
10452;SDS011;5274;51.992;8.518;2022-11-14T13:43:42;9.20;;;6.53;;
10452;SDS011;5274;51.992;8.518;2022-11-14T13:52:12;9.55;;;6.88;;
10452;SDS011;5274;51.992;8.518;2022-11-14T13:54:46;9.68;;;7.30;;
10452;SDS011;5274;51.992;8.518;2022-11-14T14:14:01;11.25;;;7.25;;
10452;SDS011;5274;51.992;8.518;2022-11-14T14:16:43;10.75;;;6.60;;
10452;SDS011;5274;51.992;8.518;2022-11-14T14:21:47;10.98;;;7.40;;
10452;SDS011;5274;51.992;8.518;2022-11-14T14:30:13;11.43;;;6.78;;
10452;SDS011;5274;51.992;8.518;2022-11-14T14:32:41;9.68;;;6.53;;
10452;SDS011;5274;51.992;8.518;2022-11-14T14:35:30;8.25;;;6.72;;
10452;SDS011;5274;51.992;8.518;2022-11-14T14:37:57;9.57;;;6.70;;
10452;SDS011;5274;51.992;8.518;2022-11-14T14:42:58;10.27;;;6.95;;
10452;SDS011;5274;51.992;8.518;2022-11-14T14:45:27;10.63;;;7.50;;
10452;SDS011;5274;51.992;8.518;2022-11-14T14:48:01;8.27;;;6.43;;
10452;SDS011;5274;51.992;8.518;2022-11-14T14:53:05;8.98;;;6.80;;
10452;SDS011;5274;51.992;8.518;2022-11-14T14:55:49;14.15;;;8.07;;
10452;SDS011;5274;51.992;8.518;2022-11-14T14:58:23;12.60;;;7.93;;
10452;SDS011;5274;51.992;8.518;2022-11-14T15:00:58;12.55;;;7.78;;
10452;SDS011;5274;51.992;8.518;2022-11-14T15:03:34;13.98;;;7.95;;
10452;SDS011;5274;51.992;8.518;2022-11-14T15:06:17;12.68;;;8.02;;
10452;SDS011;5274;51.992;8.518;2022-11-14T15:08:54;14.00;;;8.43;;
10452;SDS011;5274;51.992;8.518;2022-11-14T15:11:40;12.80;;;8.55;;
10452;SDS011;5274;51.992;8.518;2022-11-14T15:14:09;13.23;;;8.95;;
10452;SDS011;5274;51.992;8.518;2022-11-14T15:16:40;15.20;;;8.07;;
10452;SDS011;5274;51.992;8.518;2022-11-14T15:19:09;10.88;;;7.63;;
10452;SDS011;5274;51.992;8.518;2022-11-14T15:21:38;15.55;;;8.65;;
10452;SDS011;5274;51.992;8.518;2022-11-14T15:24:15;11.63;;;8.32;;
10452;SDS011;5274;51.992;8.518;2022-11-14T15:26:48;13.40;;;8.43;;
10452;SDS011;5274;51.992;8.518;2022-11-14T15:29:18;13.45;;;7.85;;
10452;SDS011;5274;51.992;8.518;2022-11-14T15:31:50;17.58;;;8.82;;
10452;SDS011;5274;51.992;8.518;2022-11-14T15:34:24;14.52;;;8.18;;
10452;SDS011;5274;51.992;8.518;2022-11-14T15:39:34;17.08;;;10.25;;
10452;SDS011;5274;51.992;8.518;2022-11-14T15:44:53;10.10;;;8.25;;
10452;SDS011;5274;51.992;8.518;2022-11-14T15:47:20;12.20;;;8.13;;
10452;SDS011;5274;51.992;8.518;2022-11-14T15:49:56;10.75;;;7.72;;
10452;SDS011;5274;51.992;8.518;2022-11-14T15:55:09;11.65;;;7.95;;
10452;SDS011;5274;51.992;8.518;2022-11-14T15:57:43;11.60;;;7.80;;
10452;SDS011;5274;51.992;8.518;2022-11-14T16:00:12;11.65;;;8.60;;
10452;SDS011;5274;51.992;8.518;2022-11-14T16:02:42;12.45;;;7.55;;
10452;SDS011;5274;51.992;8.518;2022-11-14T16:05:14;14.00;;;8.25;;
10452;SDS011;5274;51.992;8.518;2022-11-14T16:07:41;13.07;;;8.50;;
10452;SDS011;5274;51.992;8.518;2022-11-14T16:10:14;12.82;;;8.48;;
10452;SDS011;5274;51.992;8.518;2022-11-14T16:12:41;13.40;;;8.82;;
10452;SDS011;5274;51.992;8.518;2022-11-14T16:15:06;12.88;;;8.90;;
10452;SDS011;5274;51.992;8.518;2022-11-14T16:17:36;11.38;;;8.48;;
10452;SDS011;5274;51.992;8.518;2022-11-14T16:20:06;11.95;;;7.95;;
10452;SDS011;5274;51.992;8.518;2022-11-14T16:22:40;13.02;;;8.40;;
10452;SDS011;5274;51.992;8.518;2022-11-14T16:25:23;13.45;;;8.10;;
10452;SDS011;5274;51.992;8.518;2022-11-14T16:27:53;13.80;;;8.52;;
10452;SDS011;5274;51.992;8.518;2022-11-14T16:30:19;15.45;;;10.20;;
10452;SDS011;5274;51.992;8.518;2022-11-14T16:32:47;12.88;;;8.73;;
10452;SDS011;5274;51.992;8.518;2022-11-14T16:35:23;11.07;;;8.23;;
10452;SDS011;5274;51.992;8.518;2022-11-14T16:37:50;11.93;;;7.93;;
10452;SDS011;5274;51.992;8.518;2022-11-14T16:40:19;11.82;;;8.20;;
10452;SDS011;5274;51.992;8.518;2022-11-14T16:42:54;12.15;;;8.30;;
10452;SDS011;5274;51.992;8.518;2022-11-14T16:45:21;17.60;;;8.75;;
10452;SDS011;5274;51.992;8.518;2022-11-14T16:47:47;10.05;;;6.88;;
10452;SDS011;5274;51.992;8.518;2022-11-14T16:50:13;12.30;;;8.18;;
10452;SDS011;5274;51.992;8.518;2022-11-14T16:52:39;13.52;;;7.65;;
10452;SDS011;5274;51.992;8.518;2022-11-14T16:55:06;11.00;;;6.90;;
10452;SDS011;5274;51.992;8.518;2022-11-14T16:57:33;12.45;;;7.97;;
10452;SDS011;5274;51.992;8.518;2022-11-14T17:00:01;11.32;;;7.63;;
10452;SDS011;5274;51.992;8.518;2022-11-14T17:02:30;11.40;;;7.70;;
10452;SDS011;5274;51.992;8.518;2022-11-14T17:04:56;11.15;;;6.70;;
10452;SDS011;5274;51.992;8.518;2022-11-14T17:07:22;12.77;;;7.00;;
10452;SDS011;5274;51.992;8.518;2022-11-14T17:09:47;10.25;;;6.85;;
10452;SDS011;5274;51.992;8.518;2022-11-14T17:12:13;9.90;;;6.55;;
10452;SDS011;5274;51.992;8.518;2022-11-14T17:14:39;8.52;;;5.60;;
10452;SDS011;5274;51.992;8.518;2022-11-14T17:17:04;9.00;;;6.15;;